createdAt,value
2022-11-01T00:04:37.880Z,13.010128
2022-11-01T00:09:39.461Z,13.403074
2022-11-01T00:14:41.221Z,13.501332
2022-11-01T00:19:42.829Z,13.713504
2022-11-01T00:24:44.310Z,13.658006
2022-11-01T00:29:45.806Z,13.410306
2022-11-01T00:34:47.238Z,13.492674
2022-11-01T00:39:48.694Z,13.536978
2022-11-01T00:44:50.368Z,13.453662
2022-11-01T00:49:52.030Z,13.897548
2022-11-01T00:54:53.478Z,13.556668
2022-11-01T00:59:54.926Z,13.030862
2022-11-01T01:04:56.698Z,13.18941
2022-11-01T01:09:58.258Z,13.306594
2022-11-01T01:15:00.267Z,13.335824
2022-11-01T01:20:01.801Z,12.57684
2022-11-01T01:25:03.707Z,12.862884
2022-11-01T01:30:05.309Z,12.687946
2022-11-01T01:35:07.155Z,12.803138
2022-11-01T01:40:08.933Z,12.865802
2022-11-01T01:45:11.026Z,12.527854
2022-11-01T01:50:12.761Z,12.793598
2022-11-01T01:55:14.648Z,13.204212
2022-11-01T02:00:16.811Z,13.523124
2022-11-01T02:05:18.619Z,12.998104
2022-11-01T02:10:20.409Z,12.815772
2022-11-01T02:15:22.161Z,12.393148
2022-11-01T02:20:24.275Z,12.86819
2022-11-01T02:25:26.105Z,13.163612
2022-11-01T02:30:27.717Z,13.157534
2022-11-01T02:35:29.591Z,13.456756
2022-11-01T02:40:31.400Z,12.839504
2022-11-01T02:45:33.403Z,12.845502
2022-11-01T02:50:35.180Z,13.239344
2022-11-01T02:55:36.946Z,12.651932
2022-11-01T03:00:38.797Z,13.571838
2022-11-01T03:05:40.337Z,13.356734
2022-11-01T03:10:41.828Z,13.377048
2022-11-01T03:15:43.739Z,13.120624
2022-11-01T03:20:45.276Z,12.656952
2022-11-01T03:25:46.728Z,12.631022
2022-11-01T03:30:48.360Z,12.647618
2022-11-01T03:35:49.915Z,12.694472
2022-11-01T03:40:51.371Z,13.129282
2022-11-01T03:45:53.683Z,12.957056
2022-11-01T03:50:55.191Z,13.162106
2022-11-01T03:55:56.819Z,13.27438
2022-11-01T04:00:58.470Z,12.867198
2022-11-01T04:05:59.979Z,13.007372
2022-11-01T04:11:01.784Z,12.8155
2022-11-01T04:16:03.748Z,12.851418
2022-11-01T04:21:05.239Z,13.07252
2022-11-01T04:26:07.150Z,13.577578
2022-11-01T04:31:08.772Z,14.869276
2022-11-01T04:36:10.730Z,15.191458
2022-11-01T04:41:12.476Z,15.186166
2022-11-01T04:46:14.686Z,15.212912
2022-11-01T04:51:16.763Z,16.063288
2022-11-01T04:56:18.489Z,14.68701
2022-11-01T05:01:20.521Z,15.830964
2022-11-01T05:06:22.469Z,15.804924
2022-11-01T05:11:24.308Z,15.608002
2022-11-01T05:16:26.351Z,16.83256
2022-11-01T05:21:28.168Z,17.251846
2022-11-01T05:26:29.842Z,17.280626
2022-11-01T05:31:31.632Z,19.209282
2022-11-01T05:36:33.470Z,18.193966
2022-11-01T05:41:35.141Z,17.834264
2022-11-01T05:46:37.147Z,18.58899
2022-11-01T05:51:38.841Z,19.728074
2022-11-01T05:56:40.718Z,20.417232
2022-11-01T06:01:42.663Z,19.954238
2022-11-01T06:06:44.365Z,19.697176
2022-11-01T06:11:45.843Z,19.921576
2022-11-01T06:16:47.917Z,21.378026
2022-11-01T06:21:49.452Z,20.860102
2022-11-01T06:26:50.954Z,22.1416
2022-11-01T06:31:52.728Z,21.351538
2022-11-01T06:36:54.342Z,21.05412
2022-11-01T06:41:56.158Z,21.648834
2022-11-01T06:46:58.290Z,21.691402
2022-11-01T06:52:00.158Z,21.589006
2022-11-01T06:57:01.635Z,22.729462
2022-11-01T07:02:03.388Z,22.187696
2022-11-01T07:07:04.962Z,22.128356
2022-11-01T07:12:06.939Z,22.74333
2022-11-01T07:17:08.993Z,22.645398
2022-11-01T07:22:10.891Z,22.609846
2022-11-01T07:27:16.418Z,22.611366
2022-11-01T07:32:20.793Z,23.229298
2022-11-01T07:37:22.619Z,23.326836
2022-11-01T07:42:24.833Z,23.562052
2022-11-01T07:47:26.919Z,22.196272
2022-11-01T07:52:28.987Z,24.426964
2022-11-01T07:57:30.925Z,24.485232
2022-11-01T08:02:32.697Z,24.358356
2022-11-01T08:07:34.751Z,24.796804
2022-11-01T08:12:36.592Z,24.345302
2022-11-01T08:17:38.595Z,23.957728
2022-11-01T08:22:40.563Z,24.043894
2022-11-01T08:27:42.613Z,23.811718
2022-11-01T08:32:44.768Z,23.75782
2022-11-01T08:37:46.532Z,23.057792
2022-11-01T08:42:48.052Z,24.15948
2022-11-01T08:47:50.043Z,26.213674
2022-11-01T08:52:51.597Z,24.860852
2022-11-01T08:57:53.168Z,24.130794
2022-11-01T09:02:54.734Z,24.798812
2022-11-01T09:07:56.213Z,25.231126
2022-11-01T09:12:57.790Z,26.152516
2022-11-01T09:17:59.737Z,27.810614
2022-11-01T09:23:01.650Z,25.707108
2022-11-01T09:28:03.253Z,26.628578
2022-11-01T09:33:05.250Z,25.276598
2022-11-01T09:38:07.079Z,24.352372
2022-11-01T09:43:09.034Z,24.266748
2022-11-01T09:48:11.183Z,24.508572
2022-11-01T09:53:12.745Z,24.967618
2022-11-01T09:58:14.231Z,24.111376
2022-11-01T10:03:15.931Z,26.283612
2022-11-01T10:08:17.679Z,25.81196
2022-11-01T10:13:19.292Z,26.346928
2022-11-01T10:18:21.295Z,26.813492
2022-11-01T10:23:22.812Z,26.020742
2022-11-01T10:28:24.398Z,26.85036
2022-11-01T10:33:26.046Z,25.332898
2022-11-01T10:38:41.864Z,27.075684
2022-11-01T10:44:01.179Z,26.51378
2022-11-01T10:49:03.366Z,26.3231
2022-11-01T10:54:05.351Z,26.875084
2022-11-01T10:59:07.018Z,26.407
2022-11-01T11:04:08.873Z,24.800726
2022-11-01T11:09:10.540Z,26.882114
2022-11-01T11:14:12.421Z,28.369168
2022-11-01T11:19:14.385Z,26.10083
2022-11-01T11:24:16.033Z,27.720118
2022-11-01T11:29:18.005Z,27.01914
2022-11-01T11:34:19.762Z,28.003032
2022-11-01T11:39:21.410Z,26.01256
2022-11-01T11:44:23.175Z,25.91726
2022-11-01T11:49:25.360Z,25.362426
2022-11-01T11:54:27.131Z,25.337268
2022-11-01T11:59:28.901Z,25.117644
2022-11-01T12:04:30.614Z,25.303724
2022-11-01T12:09:32.428Z,25.149478
2022-11-01T12:14:34.168Z,24.933626
2022-11-01T12:19:36.373Z,25.33397
2022-11-01T12:24:38.354Z,24.560218
2022-11-01T12:29:40.345Z,20.931356
2022-11-01T12:34:42.774Z,22.603414
2022-11-01T12:39:44.626Z,20.888096
2022-11-01T12:44:46.358Z,20.417476
2022-11-01T12:49:48.155Z,19.50191
2022-11-01T12:54:49.833Z,19.182618
2022-11-01T12:59:51.436Z,20.304672
2022-11-01T13:04:52.942Z,20.586268
2022-11-01T13:09:54.431Z,20.159722
2022-11-01T13:14:55.878Z,20.361176
2022-11-01T13:19:57.753Z,19.456886
2022-11-01T13:24:59.187Z,18.455004
2022-11-01T13:30:00.777Z,19.999954
2022-11-01T13:35:02.418Z,20.04761
2022-11-01T13:40:03.878Z,20.08053
2022-11-01T13:45:05.377Z,19.765404
2022-11-01T13:50:07.411Z,18.737468
2022-11-01T13:55:08.998Z,18.95929
2022-11-01T14:00:10.669Z,19.249706
2022-11-01T14:05:12.361Z,18.660936
2022-11-01T14:10:13.818Z,18.65236
2022-11-01T14:15:15.426Z,17.605984
2022-11-01T14:20:17.515Z,17.95502
2022-11-01T14:30:21.781Z,16.362878
2022-11-01T14:35:23.359Z,17.249458
2022-11-01T14:40:24.840Z,16.620088
2022-11-01T14:45:26.639Z,16.650104
2022-11-01T14:50:28.298Z,16.127636
2022-11-01T14:55:29.957Z,16.599354
2022-11-01T15:00:31.620Z,16.277606
2022-11-01T15:05:33.530Z,15.725136
2022-11-01T15:10:35.159Z,15.994084
2022-11-01T15:15:36.814Z,15.78286
2022-11-01T15:20:38.541Z,15.683206
2022-11-01T15:25:40.033Z,14.927626
2022-11-01T15:30:41.562Z,14.563352
2022-11-01T15:35:43.281Z,14.507038
2022-11-01T15:40:44.745Z,14.141258
2022-11-01T15:45:46.187Z,13.416414
2022-11-01T15:50:48.043Z,13.528174
2022-11-01T15:55:49.480Z,12.940938
2022-11-01T16:00:51.217Z,13.030186
2022-11-01T16:05:56.928Z,13.704442
2022-11-01T16:11:01.511Z,12.845502
2022-11-01T16:16:03.048Z,12.72099
2022-11-01T16:21:05.348Z,12.878546
2022-11-01T16:26:06.809Z,12.810848
2022-11-01T16:31:08.527Z,12.450888
2022-11-01T16:36:10.126Z,13.020984
2022-11-01T16:41:12.138Z,12.7457
2022-11-01T16:46:13.644Z,12.36555
2022-11-01T16:51:15.313Z,12.177
2022-11-01T16:56:35.447Z,12.158016
2022-11-01T17:01:38.278Z,11.78168
2022-11-01T17:06:40.181Z,11.775058
2022-11-01T17:11:46.360Z,11.63312
2022-11-01T17:16:51.404Z,11.55705
2022-11-01T17:21:53.425Z,11.475402
2022-11-01T17:26:55.013Z,11.436838
2022-11-01T17:31:56.653Z,11.977624
2022-11-01T17:36:58.260Z,11.369044
2022-11-01T17:41:59.751Z,11.196156
2022-11-01T17:47:01.639Z,11.163222
2022-11-01T17:52:03.631Z,11.312664
2022-11-01T17:57:05.424Z,10.7988
2022-11-01T18:02:07.056Z,11.027134
2022-11-01T18:07:08.942Z,11.082132
2022-11-01T18:12:10.813Z,11.021828
2022-11-01T18:17:12.576Z,10.721628
2022-11-01T18:22:14.745Z,11.180266
2022-11-01T18:27:16.736Z,10.904562
2022-11-01T18:32:18.661Z,10.90798
2022-11-01T18:37:20.413Z,11.223078
2022-11-01T18:42:22.178Z,11.163942
2022-11-01T18:47:24.042Z,11.033308
2022-11-01T18:52:26.308Z,11.10216
2022-11-01T18:57:27.945Z,10.831624
2022-11-01T19:02:29.738Z,10.880338
2022-11-01T19:07:50.402Z,11.104806
2022-11-01T19:13:07.313Z,10.772936
2022-11-01T19:18:09.081Z,10.684108
2022-11-01T19:23:11.205Z,10.367642
2022-11-01T19:28:12.799Z,10.294256
2022-11-01T19:33:14.612Z,10.629616
2022-11-01T19:38:16.716Z,10.078408
2022-11-01T19:43:18.499Z,10.166392
2022-11-01T19:48:20.244Z,10.132538
2022-11-01T19:53:22.232Z,9.909834
2022-11-01T19:58:23.991Z,10.13362
2022-11-01T20:03:26.100Z,10.493132
2022-11-01T20:08:28.145Z,10.475044
2022-11-01T20:13:29.952Z,10.26618
2022-11-01T20:18:31.774Z,11.036278
2022-11-01T20:23:33.814Z,11.059834
2022-11-01T20:28:35.618Z,11.098398
2022-11-01T20:33:37.419Z,10.820196
2022-11-01T20:38:39.488Z,10.990114
2022-11-01T20:43:41.075Z,11.02382
2022-11-01T20:48:42.823Z,11.009966
2022-11-01T20:53:45.039Z,10.565402
2022-11-01T20:58:46.961Z,10.89506
2022-11-01T21:03:48.973Z,10.47492
2022-11-01T21:08:50.748Z,10.780316
2022-11-01T21:13:52.210Z,11.134264
2022-11-01T21:18:53.672Z,10.346784
2022-11-01T21:23:55.982Z,10.14141
2022-11-01T21:28:57.684Z,10.503892
2022-11-01T21:33:59.336Z,9.907946
2022-11-01T21:39:01.002Z,10.039462
2022-11-01T21:44:02.592Z,9.750838
2022-11-01T21:49:04.095Z,10.230872
2022-11-01T21:54:05.859Z,10.553922
2022-11-01T21:59:07.551Z,10.727082
2022-11-01T22:04:09.346Z,10.769732
2022-11-01T22:09:11.420Z,10.543052
2022-11-01T22:14:13.207Z,9.954176
2022-11-01T22:19:14.896Z,10.58718
2022-11-01T22:24:17.291Z,10.61097
2022-11-01T22:29:19.062Z,10.674068
2022-11-01T22:34:20.753Z,9.795128
2022-11-01T22:39:22.229Z,9.931774
2022-11-01T22:44:23.899Z,10.4293
2022-11-01T22:49:25.576Z,10.46743
2022-11-01T22:54:27.687Z,10.785012
2022-11-01T22:59:32.908Z,11.31961
2022-11-01T23:04:34.953Z,10.766314
2022-11-01T23:09:36.778Z,9.92621
2022-11-01T23:14:38.648Z,10.727802
2022-11-01T23:19:40.272Z,10.237942
2022-11-01T23:24:42.575Z,10.222052
2022-11-01T23:29:44.217Z,10.147136
2022-11-01T23:34:46.128Z,10.367518
2022-11-01T23:39:48.362Z,10.58052
2022-11-01T23:44:50.201Z,10.218758
2022-11-01T23:49:51.625Z,10.100362
2022-11-01T23:54:53.422Z,10.09579
2022-11-01T23:59:55.100Z,9.723916
